Hyannis, MA

11:31 AM EST on January 30, 2015 (GMT -0500)
Hyannis Woods | Change Station
CLOSE
Current Station
Personal Weather Station
Location: Barnstable, MA
Elevation: 66 ft
Nearby Weather Stations
Active Advisory: Winter Weather Advisory Active Notice: Public Information Statement

Elev 66 ft 41.66 °N, 70.31 °W | Updated 13 minutes ago

Light Rain
Light Rain Mist
39.4 °F
Feels Like 39 °F
N
0.0
Wind Variable Wind from ENE

Today
High -- | Low -- °F
--% Chance of Precip.
Yesterday
High -- | Low -- °F
Precip. -- in
6:55 AM 4:54 PM
Waxing Gibbous, 83% visible
Pressure 29.77 in
Visibility 4.0 miles
Clouds Mostly Cloudy 2700 ft
Overcast 3600 ft
Windchill 39 °F
Dew Point 39 °F
Humidity 99%
Rainfall 0.07 in
Snow Depth Not available.
UV 1 out of 12
Pollen .10 out of 12
Air Quality Not available.
Flu Activity Not available.
METAR KHYA 301556Z 00000KT 4SM -RA BR BKN027 OVC036 03/03 A2976 RMK AO2 SLP080 P0003 T00280028

More Conditions Fewer Conditions

Pressure 29.77 in
Visibility 4.0 miles
Clouds Mostly Cloudy 2700 ft
Overcast 3600 ft
Windchill 39 °F
Dew Point 39 °F
Humidity 99%
Rainfall 0.07 in
Snow Depth Not available.
UV 1 out of 12
Pollen .10 out of 12
Air Quality Not available.
Flu Activity Not available.
METAR KHYA 301556Z 00000KT 4SM -RA BR BKN027 OVC036 03/03 A2976 RMK AO2 SLP080 P0003 T00280028

More Conditions Fewer Conditions

10-Day Weather Forecast

Almanac

Astronomy

Jan. 30, 2015 Rise Set
Actual Time
Civil Twilight
Nautical Twilight
Astronomical Twilight
Moon
Length of Visible Light
Length of Day
Tomorrow will be .
, % of the Moon is Illuminated

Today's Extremes

State Highs State Lows

Community

WunderPhotos

Upload Photos

1,791,810 photos uploaded!

WunderBlogs® & News

Nearby

Air Quality

  Air Quality AQ Index Pollutant
Not available.

Snow Depth

Station Depth Elevation

Earthquake Activity

City Distance Mag. Time & Date
Minimum magnitude displayed is 2.5.

Coastal Water Temperatures

Place Temperature

Nearby Weather Stations